Hailey, ID (83333)

9:05 AM MDT on July 29, 2016 (GMT -0600)
East Fork | | Change Station

Elev 5630 ft 43.60 °N, 114.33 °W | Updated 12 seconds ago

Clear
Clear
64.8 °F
Feels Like 64.8 °F
N
0.0
Wind Variable Wind from ESE
Gusts 2.0 mph

Today
High -- | Low -- °F
--% Chance of Precip.
Yesterday
High -- | Low -- °F
Precip. -- in
Pressure 30.17 in
Visibility 10.0 miles
Clouds Clear
Dew Point 43 °F
Humidity 45%
Rainfall 0.00 in
Snow Depth Not available.
6:24 AM 9:02 PM
Waning Crescent, 21% visible
METAR KSUN 291447Z 31008KT 10SM SKC 19/03 A3017
Pressure 30.17 in
Visibility 10.0 miles
Clouds Clear
Dew Point 43 °F
Humidity 45%
Rainfall 0.00 in
Snow Depth Not available.
6:24 AM 9:02 PM
Waning Crescent, 21% visible
METAR KSUN 291447Z 31008KT 10SM SKC 19/03 A3017

10-Day Weather Forecast

Almanac

Astronomy

Jul. 29, 2016 Rise Set
Actual Time
Civil Twilight
Nautical Twilight
Astronomical Twilight
Moon
Length of Visible Light
Length of Day
Tomorrow will be .
, % of the Moon is Illuminated

Today's Extremes

State Highs State Lows

Community

WunderPhotos

Upload Photos

1,928,345 photos uploaded!

WunderBlog® & News

Nearby

Air Quality

  Air Quality AQ Index Pollutant
Not available.

Snow Depth

Station Depth Elevation

Earthquake Activity

City Distance Mag. Time & Date
Minimum magnitude displayed is 2.5.

Coastal Water Temperatures

Place Temperature

Stations

Nearby Weather Stations

Station Location Temp. Windchill Dew Point Humidity Wind Precip. Elev Updated Type
                   

Watches & Warnings

There are currently no watches in effect.